TJBQ/BQN METAR and TAF weather

Enter ICAO airport designator
Station Type Date Time Source
TJBQ METAR 2018/12/19 00:50 UTC NOAA

TJBQ 190050Z 00000KT 10SM CLR 23/18 A3006


Station Type Date Time Source
TJBQ Decoded METAR 2018/12/19 00:50 UTC NOAA

Aquadilla, Rafael Hernandez Airport, PR, United States (TJBQ) 18-30N 067-08W 69M
Dec 18, 2018 - 07:50 PM EST / 2018.12.19 0050 UTC
Wind: Calm:0
Visibility: 10 mile(s):0
Sky conditions: clear
Temperature: 73 F (23 C)
Dew Point: 64 F (18 C)
Relative Humidity: 73%
Pressure (altimeter): 30.06 in. Hg (1017 hPa)
ob: TJBQ 190050Z 00000KT 10SM CLR 23/18 A3006
cycle: 1

Station Type Date Time Source
TJBQ TAF 2018/12/18 18:54 UTC NOAA

TAF TJBQ 181739Z 1818/1918 05009KT P6SM FEW025 SCT040
FM182300 12004KT P6SM FEW050
FM191450 06012KT P6SM SCT030
AMD NOT SKED 1902/1911


Example: see airport list